Time;durP1;ratioP1;P1;durP2;ratioP2;P2;SDS_P1;SDS_P2;PMS_P1;PMS_P2;Temp;Humidity;BMP_temperature;BMP_pressure;BME280_temperature;BME280_humidity;BME280_pressure;Samples;Min_cycle;Max_cycle;Signal;HPM_P1;HPM_P2
2023/04/26 00:00:08;;;;;;;5.50;3.67;;;;;;;11.47;66.75;93705.69;4226128;28;20599;-61
2023/04/26 00:02:10;;;;;;;5.40;3.63;;;;;;;11.45;67.24;93705.88;4224396;28;20066;-59
2023/04/26 00:04:12;;;;;;;4.13;3.42;;;;;;;11.32;67.27;93702.34;4226789;28;20476;-62
2023/04/26 00:06:15;;;;;;;4.85;3.45;;;;;;;11.26;67.46;93702.06;4224993;28;20046;-60
2023/04/26 00:08:16;;;;;;;5.07;3.65;;;;;;;11.25;67.49;93700.44;4225993;28;20116;-59
2023/04/26 00:10:18;;;;;;;6.22;3.65;;;;;;;11.26;67.59;93696.81;4225845;28;20083;-61
2023/04/26 00:12:20;;;;;;;8.02;3.85;;;;;;;11.27;67.28;93692.38;4223111;28;20532;-63
2023/04/26 00:14:22;;;;;;;4.45;3.50;;;;;;;11.32;67.29;93691.84;4208221;28;20055;-60
2023/04/26 00:16:24;;;;;;;5.40;4.43;;;;;;;11.36;67.38;93682.59;4225112;28;20464;-60
2023/04/26 00:18:26;;;;;;;7.45;4.72;;;;;;;11.38;67.46;93673.53;4214009;28;20055;-61
2023/04/26 00:20:27;;;;;;;4.35;3.25;;;;;;;11.39;66.58;93672.53;4222236;28;20412;-60
2023/04/26 00:22:30;;;;;;;4.15;3.75;;;;;;;11.34;66.28;93674.13;4213425;28;20151;-60
2023/04/26 00:24:31;;;;;;;4.97;3.47;;;;;;;11.30;66.13;93678.91;4219159;28;20291;-61
2023/04/26 00:26:33;;;;;;;4.82;3.85;;;;;;;11.27;66.92;93680.09;4229267;28;20044;-61
2023/04/26 00:28:35;;;;;;;5.65;3.88;;;;;;;11.23;67.41;93673.63;4227317;28;20163;-60
2023/04/26 00:30:40;;;;;;;4.80;3.60;;;;;;;11.18;67.92;93675.16;4223871;28;20047;-62
2023/04/26 00:32:41;;;;;;;8.85;4.70;;;;;;;11.14;68.66;93673.91;4220324;28;20108;-62
2023/04/26 00:34:43;;;;;;;6.68;5.38;;;;;;;11.11;69.51;93671.69;4224773;28;20058;-61
2023/04/26 00:36:44;;;;;;;8.27;6.40;;;;;;;11.09;69.84;93671.84;4222080;28;20123;-59
2023/04/26 00:38:46;;;;;;;6.95;5.60;;;;;;;11.13;69.84;93667.88;4225398;27;20047;-61
2023/04/26 00:40:48;;;;;;;9.93;6.45;;;;;;;11.15;70.10;93668.50;4222493;28;20081;-61
2023/04/26 00:42:56;;;;;;;6.10;5.47;;;;;;;11.18;70.15;93668.09;4223546;28;20539;-61
2023/04/26 00:44:58;;;;;;;8.00;5.70;;;;;;;11.17;70.16;93665.69;4224062;28;20048;-61
2023/04/26 00:47:00;;;;;;;6.88;5.75;;;;;;;11.13;70.10;93667.06;4220119;28;20113;-60
2023/04/26 00:49:02;;;;;;;8.77;5.85;;;;;;;11.10;70.53;93667.41;4220952;28;20086;-60
2023/04/26 00:51:04;;;;;;;11.23;6.55;;;;;;;11.12;70.59;93670.66;4215112;28;20055;-60
2023/04/26 00:53:07;;;;;;;8.30;6.50;;;;;;;11.12;70.44;93675.91;4220618;28;20465;-60
2023/04/26 00:55:09;;;;;;;8.35;6.32;;;;;;;11.12;70.66;93671.50;4212557;28;20044;-60
2023/04/26 00:57:11;;;;;;;7.95;6.40;;;;;;;11.13;70.60;93669.69;4229533;28;20070;-61
2023/04/26 00:59:13;;;;;;;10.05;5.93;;;;;;;11.15;70.55;93667.69;4225209;28;20047;-62
2023/04/26 01:01:14;;;;;;;9.65;5.63;;;;;;;11.12;70.69;93671.50;4228127;28;20048;-62
2023/04/26 01:03:16;;;;;;;7.05;6.05;;;;;;;11.13;71.07;93674.94;4218708;28;20136;-61
2023/04/26 01:05:18;;;;;;;7.80;6.70;;;;;;;11.11;70.96;93674.31;4211480;28;20056;-60
2023/04/26 01:07:20;;;;;;;9.70;6.90;;;;;;;11.08;70.91;93678.13;4222000;28;20041;-59
2023/04/26 01:09:22;;;;;;;8.75;6.90;;;;;;;11.05;70.87;93679.28;4207331;28;20312;-59
2023/04/26 01:11:23;;;;;;;10.38;7.60;;;;;;;11.01;71.01;93680.66;4221840;28;20405;-60
2023/04/26 01:13:25;;;;;;;8.63;6.53;;;;;;;11.00;71.37;93680.84;4217694;28;20165;-60
2023/04/26 01:15:29;;;;;;;9.13;7.07;;;;;;;10.98;71.44;93680.22;4221122;28;20051;-60
2023/04/26 01:17:30;;;;;;;8.25;6.93;;;;;;;10.97;71.70;93682.03;4226085;28;20071;-61
2023/04/26 01:19:32;;;;;;;8.60;6.65;;;;;;;10.91;71.48;93680.16;4216449;28;20052;-60
2023/04/26 01:21:34;;;;;;;11.98;8.43;;;;;;;10.92;71.86;93667.84;4221814;28;20676;-60
2023/04/26 01:23:35;;;;;;;10.27;7.75;;;;;;;10.88;71.88;93661.38;4228010;28;20056;-61
2023/04/26 01:25:37;;;;;;;10.00;8.05;;;;;;;10.85;71.69;93658.13;4226506;28;20048;-60
2023/04/26 01:27:39;;;;;;;10.13;7.53;;;;;;;10.81;71.99;93658.69;4227347;28;20420;-60
2023/04/26 01:29:40;;;;;;;10.50;7.97;;;;;;;10.80;72.05;93657.06;4227922;28;20458;-62
2023/04/26 01:31:42;;;;;;;11.10;8.00;;;;;;;10.77;72.29;93660.03;4216399;28;20044;-61
2023/04/26 01:33:44;;;;;;;10.07;7.97;;;;;;;10.77;71.98;93667.91;4224617;28;20493;-60
2023/04/26 01:35:46;;;;;;;10.88;8.43;;;;;;;10.79;72.12;93665.91;4227026;28;20109;-61
2023/04/26 01:37:47;;;;;;;10.70;7.95;;;;;;;10.69;73.02;93670.63;4224602;28;20042;-61
2023/04/26 01:39:49;;;;;;;11.45;8.55;;;;;;;10.69;73.03;93670.63;4224469;28;20040;-62
2023/04/26 01:41:51;;;;;;;10.95;8.32;;;;;;;10.70;72.91;93667.03;4223965;28;20047;-61
2023/04/26 01:43:52;;;;;;;11.35;8.65;;;;;;;10.73;72.77;93669.28;4222308;28;20043;-62
2023/04/26 01:45:54;;;;;;;10.23;7.75;;;;;;;10.74;72.32;93681.38;4213744;28;20060;-61
2023/04/26 01:47:56;;;;;;;8.15;6.03;;;;;;;10.69;71.05;93683.72;4225413;28;20108;-60
2023/04/26 01:49:58;;;;;;;6.70;4.63;;;;;;;10.60;69.10;93683.84;4224958;28;20050;-60
2023/04/26 01:52:00;;;;;;;7.32;5.45;;;;;;;10.48;69.30;93681.91;4223772;28;20062;-60
2023/04/26 01:54:02;;;;;;;7.43;4.32;;;;;;;10.33;68.90;93674.06;4222323;28;20048;-59
2023/04/26 01:56:04;;;;;;;5.80;3.53;;;;;;;10.25;67.79;93672.31;4225153;28;20100;-59
2023/04/26 01:58:06;;;;;;;6.88;3.95;;;;;;;10.25;67.74;93670.50;4225879;28;20048;-61
2023/04/26 02:00:08;;;;;;;4.38;3.60;;;;;;;10.29;67.77;93667.53;4228021;28;20082;-61
2023/04/26 02:02:10;;;;;;;4.35;3.60;;;;;;;10.34;67.62;93659.97;4226279;28;20047;-58
2023/04/26 02:04:12;;;;;;;5.13;3.65;;;;;;;10.39;67.59;93657.59;4223609;28;20052;-60
2023/04/26 02:06:13;;;;;;;4.57;3.80;;;;;;;10.27;67.33;93645.97;4216278;28;20052;-61
2023/04/26 02:08:15;;;;;;;4.70;3.65;;;;;;;9.92;68.77;93648.34;4227346;28;20079;-59
2023/04/26 02:10:16;;;;;;;5.18;4.07;;;;;;;9.77;69.34;93650.94;4225719;28;20044;-60
2023/04/26 02:12:18;;;;;;;4.70;3.70;;;;;;;9.89;69.73;93659.16;4227132;28;20128;-59
2023/04/26 02:14:20;;;;;;;4.38;3.60;;;;;;;9.98;69.78;93658.06;4225948;28;20520;-60
2023/04/26 02:16:21;;;;;;;6.45;3.97;;;;;;;10.11;69.02;93647.78;4222570;28;20063;-60
2023/04/26 02:18:24;;;;;;;9.88;4.88;;;;;;;10.04;68.92;93652.09;4213257;28;20056;-59
2023/04/26 02:20:25;;;;;;;6.03;4.50;;;;;;;9.95;69.68;93645.34;4225846;28;20109;-59
2023/04/26 02:22:28;;;;;;;6.78;4.70;;;;;;;9.69;70.29;93651.03;4216478;28;20103;-60
2023/04/26 02:24:30;;;;;;;5.22;3.90;;;;;;;9.61;70.92;93646.69;4221711;28;20113;-60
2023/04/26 02:26:33;;;;;;;;;;;;;;;9.62;71.07;93643.91;4221256;28;20760;-60
2023/04/26 02:28:35;;;;;;;5.75;4.72;;;;;;;9.79;71.59;93647.16;4214461;28;19920;-59
2023/04/26 02:30:37;;;;;;;7.15;6.45;;;;;;;9.94;71.40;93643.75;4223941;28;20044;-60
2023/04/26 02:32:39;;;;;;;8.02;7.22;;;;;;;10.08;70.71;93642.91;4217524;28;20040;-58
2023/04/26 02:34:42;;;;;;;8.18;7.38;;;;;;;10.21;70.84;93650.09;4227431;28;20486;-61
2023/04/26 02:36:43;;;;;;;19.17;14.15;;;;;;;10.30;70.69;93651.66;4211977;28;20417;-61
2023/04/26 02:38:45;;;;;;;12.27;9.23;;;;;;;10.37;70.53;93654.38;4227148;28;20048;-59
2023/04/26 02:40:46;;;;;;;9.25;7.57;;;;;;;10.38;70.10;93658.59;4224785;28;20486;-59
2023/04/26 02:42:48;;;;;;;9.88;7.32;;;;;;;10.39;70.38;93654.97;4212648;28;20048;-59
2023/04/26 02:44:50;;;;;;;8.35;6.93;;;;;;;10.40;70.80;93652.19;4223766;28;20048;-58
2023/04/26 02:46:52;;;;;;;8.50;6.82;;;;;;;10.41;70.53;93648.59;4226444;27;20112;-60
2023/04/26 02:48:54;;;;;;;8.48;6.60;;;;;;;10.48;70.62;93646.03;4226549;28;20264;-58
2023/04/26 02:50:56;;;;;;;9.13;7.43;;;;;;;10.51;70.50;93635.19;4226473;28;20048;-58
2023/04/26 02:52:57;;;;;;;9.65;6.63;;;;;;;10.55;70.43;93639.06;4210864;28;20075;-57
2023/04/26 02:55:00;;;;;;;10.48;7.45;;;;;;;10.59;70.74;93634.28;4224595;28;20055;-58
2023/04/26 02:57:01;;;;;;;8.80;7.28;;;;;;;10.56;70.93;93630.22;4226255;28;20036;-59
2023/04/26 02:59:03;;;;;;;11.68;8.63;;;;;;;10.56;70.77;93632.00;4224403;28;20170;-60
2023/04/26 03:01:04;;;;;;;11.75;9.50;;;;;;;10.57;71.33;93631.03;4226042;28;20447;-58
2023/04/26 03:03:06;;;;;;;10.88;8.48;;;;;;;10.58;71.40;93638.72;4219009;28;20385;-59
2023/04/26 03:05:09;;;;;;;12.48;8.70;;;;;;;10.62;71.59;93631.28;4226489;28;20525;-60
2023/04/26 03:07:11;;;;;;;16.50;9.18;;;;;;;10.63;71.34;93636.34;4211489;28;20048;-59
2023/04/26 03:09:12;;;;;;;13.93;9.13;;;;;;;10.64;71.40;93630.09;4226745;28;20172;-59
2023/04/26 03:11:14;;;;;;;12.27;8.77;;;;;;;10.65;72.09;93639.59;4226265;28;20116;-59
2023/04/26 03:13:15;;;;;;;12.85;9.82;;;;;;;10.64;72.12;93634.53;4222936;28;20043;-59
2023/04/26 03:15:17;;;;;;;14.70;10.88;;;;;;;10.66;72.51;93638.56;4211700;28;20168;-60
2023/04/26 03:17:19;;;;;;;13.02;10.52;;;;;;;10.70;72.61;93636.41;4210781;28;20048;-59
2023/04/26 03:19:20;;;;;;;14.48;11.13;;;;;;;10.75;72.49;93639.25;4213234;28;20075;-60
2023/04/26 03:21:22;;;;;;;11.70;8.65;;;;;;;10.63;71.97;93631.09;4212207;28;20051;-59
2023/04/26 03:23:24;;;;;;;10.88;7.47;;;;;;;10.49;72.04;93631.94;4226782;28;20108;-59
2023/04/26 03:25:25;;;;;;;8.98;7.03;;;;;;;10.37;72.18;93636.06;4224391;28;20084;-59
2023/04/26 03:27:27;;;;;;;11.52;5.80;;;;;;;10.05;71.91;93636.22;4207173;28;20093;-60
2023/04/26 03:29:29;;;;;;;8.63;5.97;;;;;;;9.97;72.71;93632.91;4217875;28;20094;-59
2023/04/26 03:31:31;;;;;;;8.82;6.30;;;;;;;9.97;72.98;93636.31;4206154;28;20527;-62
2023/04/26 03:33:32;;;;;;;9.35;6.30;;;;;;;10.05;72.82;93638.84;4208214;28;20047;-59
2023/04/26 03:35:34;;;;;;;8.98;5.25;;;;;;;10.08;72.01;93632.44;4209441;28;20118;-60
2023/04/26 03:37:38;;;;;;;10.07;5.68;;;;;;;10.12;71.79;93633.69;4218405;28;20675;-61
2023/04/26 03:39:40;;;;;;;7.63;5.55;;;;;;;10.13;72.02;93634.50;4221665;28;20162;-59
2023/04/26 03:41:42;;;;;;;11.65;6.57;;;;;;;10.22;71.75;93644.69;4223536;28;20083;-61
2023/04/26 03:43:43;;;;;;;11.50;8.02;;;;;;;10.28;71.38;93637.91;4225147;28;20048;-60
2023/04/26 03:45:48;;;;;;;14.00;10.02;;;;;;;10.31;72.03;93647.25;4218244;28;20105;-59
2023/04/26 03:47:50;;;;;;;14.07;9.95;;;;;;;10.39;72.30;93654.97;4213743;28;20044;-61
2023/04/26 03:49:52;;;;;;;13.75;10.80;;;;;;;10.45;72.18;93651.63;4222308;28;20147;-60
2023/04/26 03:51:53;;;;;;;14.95;10.95;;;;;;;10.46;72.47;93653.28;4209705;28;20051;-58
2023/04/26 03:53:55;;;;;;;17.55;10.93;;;;;;;10.51;72.32;93650.09;4216774;28;20090;-58
2023/04/26 03:55:57;;;;;;;22.42;16.90;;;;;;;10.60;72.65;93657.66;4215475;28;20139;-60
2023/04/26 03:57:58;;;;;;;59.15;34.92;;;;;;;10.70;72.65;93652.13;4214643;28;20501;-60
2023/04/26 04:00:00;;;;;;;25.80;17.75;;;;;;;10.79;72.02;93653.63;4214409;28;20459;-62
2023/04/26 04:02:02;;;;;;;22.40;15.35;;;;;;;10.77;71.20;93657.44;4217136;28;20513;-61
2023/04/26 04:04:04;;;;;;;21.80;15.45;;;;;;;10.74;71.18;93661.22;4218459;28;20039;-63
2023/04/26 04:06:06;;;;;;;22.55;16.48;;;;;;;10.78;71.47;93664.31;4217199;28;20116;-61
2023/04/26 04:08:08;;;;;;;24.38;16.50;;;;;;;10.84;70.91;93659.13;4216888;28;20044;-60
2023/04/26 04:10:10;;;;;;;15.80;11.25;;;;;;;10.88;70.20;93658.75;4207456;28;20583;-59
2023/04/26 04:12:12;;;;;;;14.00;9.43;;;;;;;10.90;69.67;93662.78;4220937;28;20044;-62
2023/04/26 04:14:13;;;;;;;15.98;10.60;;;;;;;10.92;69.71;93663.44;4224418;28;20047;-59
2023/04/26 04:16:15;;;;;;;15.48;11.13;;;;;;;11.01;69.40;93669.34;4226378;28;20047;-59
2023/04/26 04:18:17;;;;;;;12.88;9.10;;;;;;;10.98;69.37;93673.16;4228372;28;20046;-59
2023/04/26 04:20:20;;;;;;;11.60;7.72;;;;;;;10.92;68.85;93673.91;4227564;28;20078;-60
2023/04/26 04:22:21;;;;;;;12.43;6.70;;;;;;;10.88;69.29;93669.22;4225261;27;20090;-62
2023/04/26 04:24:23;;;;;;;13.25;9.05;;;;;;;10.90;69.25;93678.53;4230255;28;20109;-62
2023/04/26 04:26:26;;;;;;;15.93;9.90;;;;;;;10.66;69.61;93674.44;4221373;28;20048;-61
2023/04/26 04:28:28;;;;;;;15.52;9.13;;;;;;;10.21;71.08;93673.66;4219828;28;20098;-62
2023/04/26 04:30:30;;;;;;;23.77;10.77;;;;;;;9.76;73.29;93678.06;4225749;28;20066;-64
2023/04/26 04:32:32;;;;;;;15.93;10.63;;;;;;;9.91;73.64;93684.13;4220622;28;20043;-60
2023/04/26 04:34:35;;;;;;;17.13;11.13;;;;;;;10.10;73.18;93685.41;4229828;27;20478;-62
2023/04/26 04:36:37;;;;;;;17.77;11.65;;;;;;;10.34;73.07;93678.28;4227342;28;20047;-60
2023/04/26 04:38:39;;;;;;;16.00;11.27;;;;;;;10.52;71.95;93677.88;4229930;28;20126;-62
2023/04/26 04:40:41;;;;;;;15.60;10.98;;;;;;;10.66;70.87;93690.97;4229151;28;20048;-60
2023/04/26 04:42:43;;;;;;;16.13;10.10;;;;;;;10.75;70.61;93680.38;4218382;28;20131;-62
2023/04/26 04:44:45;;;;;;;12.43;9.52;;;;;;;10.87;70.35;93678.91;4226079;28;20323;-60
2023/04/26 04:46:47;;;;;;;15.45;10.93;;;;;;;10.89;69.74;93679.53;4229146;28;20058;-62
2023/04/26 04:48:48;;;;;;;12.32;9.73;;;;;;;11.00;69.68;93683.47;4230437;28;20463;-61
2023/04/26 04:50:51;;;;;;;14.43;9.50;;;;;;;10.95;69.16;93691.06;4229240;28;20104;-60
2023/04/26 04:52:53;;;;;;;14.25;8.30;;;;;;;10.85;69.57;93686.13;4225451;28;20084;-60
2023/04/26 04:54:54;;;;;;;10.98;7.40;;;;;;;10.32;70.90;93690.75;4227673;28;20160;-60
2023/04/26 04:56:56;;;;;;;14.27;7.88;;;;;;;10.07;71.62;93693.63;4229020;28;20055;-61
2023/04/26 04:58:58;;;;;;;15.18;7.60;;;;;;;10.20;72.87;93698.22;4227305;28;20079;-63
2023/04/26 05:01:00;;;;;;;11.63;6.13;;;;;;;10.33;71.58;93689.78;4227326;28;20048;-63
2023/04/26 05:03:01;;;;;;;18.08;7.40;;;;;;;10.50;71.45;93683.34;4228108;28;20436;-61
2023/04/26 05:05:04;;;;;;;8.43;5.30;;;;;;;10.68;70.85;93690.78;4227680;28;20132;-62
2023/04/26 05:07:06;;;;;;;9.45;5.30;;;;;;;10.85;69.64;93675.66;4225129;28;20089;-59
2023/04/26 05:09:08;;;;;;;7.32;5.30;;;;;;;10.98;69.11;93677.59;4215335;28;20055;-62
2023/04/26 05:11:10;;;;;;;7.32;4.75;;;;;;;11.09;68.70;93687.59;4228483;28;20075;-61
2023/04/26 05:13:11;;;;;;;12.55;5.45;;;;;;;11.12;68.38;93681.16;4224037;28;20052;-62
2023/04/26 05:15:13;;;;;;;9.13;5.47;;;;;;;11.18;67.84;93683.84;4216815;28;20109;-61
2023/04/26 05:17:15;;;;;;;8.60;4.78;;;;;;;11.15;68.08;93683.41;4226728;28;20050;-59
2023/04/26 05:19:16;;;;;;;10.25;5.43;;;;;;;10.98;68.92;93685.47;4222623;27;20052;-62
2023/04/26 05:21:18;;;;;;;8.48;5.50;;;;;;;10.97;68.92;93689.06;4222193;28;20104;-61
2023/04/26 05:23:20;;;;;;;11.88;7.50;;;;;;;10.75;68.75;93686.41;4222677;28;20048;-63
2023/04/26 05:25:21;;;;;;;9.35;5.80;;;;;;;10.94;69.27;93695.50;4216160;28;20052;-59
2023/04/26 05:27:23;;;;;;;9.77;5.07;;;;;;;11.09;68.72;93695.44;4217799;28;20051;-61
2023/04/26 05:29:31;;;;;;;10.18;5.47;;;;;;;11.33;67.85;93682.97;4213091;28;20059;-61
2023/04/26 05:31:33;;;;;;;7.68;5.20;;;;;;;11.47;67.13;93684.72;4211738;28;20047;-61
2023/04/26 05:33:34;;;;;;;9.25;5.10;;;;;;;11.66;66.06;93689.31;4217260;28;20055;-62
2023/04/26 05:35:36;;;;;;;12.43;5.03;;;;;;;11.82;65.53;93690.00;4217763;28;20554;-62
2023/04/26 05:37:38;;;;;;;15.07;6.00;;;;;;;11.86;65.49;93697.31;4214191;28;20045;-62
2023/04/26 05:39:40;;;;;;;9.25;5.20;;;;;;;11.98;65.15;93696.81;4215237;28;20051;-61
2023/04/26 05:41:42;;;;;;;9.20;5.50;;;;;;;12.01;64.92;93696.44;4217975;28;20097;-63
2023/04/26 05:43:45;;;;;;;13.70;5.88;;;;;;;12.11;64.66;93696.91;4215576;28;20048;-62
2023/04/26 05:45:55;;;;;;;9.68;5.70;;;;;;;12.17;63.81;93703.19;4215290;28;20056;-61
2023/04/26 05:47:57;;;;;;;8.77;5.57;;;;;;;12.09;63.82;93706.78;4214628;28;20051;-60
2023/04/26 05:49:59;;;;;;;10.32;5.85;;;;;;;12.05;64.28;93705.56;4212200;28;20050;-59
2023/04/26 05:52:02;;;;;;;7.05;4.88;;;;;;;12.17;64.30;93705.81;4211588;28;20048;-61
2023/04/26 05:54:04;;;;;;;9.38;5.25;;;;;;;12.33;64.06;93705.50;4221843;28;20109;-59
2023/04/26 05:56:06;;;;;;;8.95;5.35;;;;;;;12.32;63.27;93698.63;4218884;28;20060;-60
2023/04/26 05:58:08;;;;;;;10.13;5.90;;;;;;;12.19;63.56;93707.22;4227502;28;20039;-63
2023/04/26 06:00:11;;;;;;;9.20;6.18;;;;;;;12.12;63.18;93708.22;4219314;28;20526;-62
2023/04/26 06:02:13;;;;;;;10.10;5.65;;;;;;;11.95;63.92;93707.69;4223235;28;20081;-64
2023/04/26 06:04:14;;;;;;;8.95;6.10;;;;;;;12.02;64.86;93708.53;4228459;28;20039;-61
2023/04/26 06:06:17;;;;;;;8.30;5.97;;;;;;;12.01;65.01;93709.56;4226622;28;20047;-60
2023/04/26 06:08:19;;;;;;;8.52;5.40;;;;;;;11.89;63.38;93714.50;4227531;28;20073;-62
2023/04/26 06:10:21;;;;;;;9.30;5.95;;;;;;;11.68;63.04;93707.47;4225631;28;20085;-63
2023/04/26 06:12:22;;;;;;;7.78;5.70;;;;;;;11.85;63.28;93708.00;4202864;28;20048;-61
2023/04/26 06:14:24;;;;;;;9.02;5.68;;;;;;;11.82;63.35;93709.19;4217150;28;20569;-61
2023/04/26 06:16:31;;;;;;;11.05;5.57;;;;;;;11.93;63.50;93707.06;4213199;28;20051;-61
2023/04/26 06:18:33;;;;;;;8.63;5.28;;;;;;;11.51;63.31;93717.44;4223170;28;20039;-61
2023/04/26 06:20:34;;;;;;;7.70;5.60;;;;;;;11.22;65.39;93713.13;4212658;28;20569;-62
2023/04/26 06:22:37;;;;;;;9.50;5.88;;;;;;;11.25;66.05;93729.28;4213589;28;20047;-60
2023/04/26 06:24:39;;;;;;;9.35;5.75;;;;;;;11.16;63.29;93716.47;4228149;28;20135;-61
2023/04/26 06:26:41;;;;;;;5.93;4.28;;;;;;;10.80;64.11;93719.94;4216203;28;20125;-62
2023/04/26 06:28:43;;;;;;;8.50;5.78;;;;;;;10.99;64.00;93715.91;4223529;28;20075;-62
2023/04/26 06:30:44;;;;;;;10.80;6.38;;;;;;;11.15;64.50;93717.50;4224411;28;20642;-61
2023/04/26 06:32:47;;;;;;;12.70;6.65;;;;;;;11.10;65.73;93718.06;4219835;28;20146;-62
2023/04/26 06:34:48;;;;;;;8.70;6.43;;;;;;;11.31;63.05;93725.09;4217090;28;20109;-61
2023/04/26 06:36:50;;;;;;;15.25;6.30;;;;;;;11.50;62.56;93721.03;4223286;28;20048;-61
2023/04/26 06:38:52;;;;;;;9.75;6.22;;;;;;;11.56;62.35;93714.22;4216994;28;20101;-61
2023/04/26 06:40:54;;;;;;;7.10;5.15;;;;;;;11.28;61.75;93725.47;4228098;28;20071;-62
2023/04/26 06:42:56;;;;;;;11.18;7.63;;;;;;;11.58;62.20;93722.72;4227254;28;20048;-62
2023/04/26 06:45:15;;;;;;;5.97;4.97;;;;;;;10.78;64.94;93729.78;4223333;28;20141;-62
2023/04/26 06:47:17;;;;;;;9.43;6.00;;;;;;;10.95;64.97;93725.97;4216013;28;20105;-62
2023/04/26 06:49:19;;;;;;;7.10;5.68;;;;;;;11.13;63.68;93725.53;4212332;28;20410;-61
2023/04/26 06:51:20;;;;;;;7.55;5.43;;;;;;;11.00;63.50;93720.16;4224652;28;20083;-58
2023/04/26 06:53:22;;;;;;;7.88;5.20;;;;;;;10.84;64.65;93758.69;4225741;28;20075;-59
2023/04/26 06:55:24;;;;;;;7.40;5.75;;;;;;;10.77;64.88;93730.78;4227958;28;20142;-62
2023/04/26 06:57:25;;;;;;;7.88;5.65;;;;;;;10.79;64.08;93750.56;4221590;28;20044;-62
2023/04/26 06:59:27;;;;;;;7.28;5.03;;;;;;;10.24;66.36;93736.94;4227312;28;20043;-62
2023/04/26 07:01:32;;;;;;;7.32;5.95;;;;;;;10.57;65.44;93736.59;4220754;28;20048;-63
2023/04/26 07:03:34;;;;;;;11.77;6.53;;;;;;;11.01;65.09;93734.88;4222639;28;20052;-63
2023/04/26 07:05:38;;;;;;;8.25;6.20;;;;;;;11.40;63.63;93736.25;4224762;28;20450;-61
2023/04/26 07:07:40;;;;;;;8.77;6.43;;;;;;;11.74;62.87;93730.31;4216027;28;20122;-62
2023/04/26 07:09:42;;;;;;;11.32;7.28;;;;;;;12.11;61.91;93738.91;4226902;28;20568;-62
2023/04/26 07:11:46;;;;;;;21.25;7.22;;;;;;;11.94;61.50;93742.81;4228408;28;20083;-61
2023/04/26 07:13:48;;;;;;;11.70;6.93;;;;;;;11.43;63.97;93730.66;4222182;28;20047;-62
2023/04/26 07:15:50;;;;;;;7.28;6.03;;;;;;;11.67;62.94;93732.88;4225305;28;20481;-60
2023/04/26 07:17:52;;;;;;;7.10;5.82;;;;;;;11.78;61.66;93730.75;4223307;28;20048;-61
2023/04/26 07:19:53;;;;;;;9.55;6.00;;;;;;;12.03;60.95;93731.97;4218346;28;20056;-61
2023/04/26 07:21:56;;;;;;;6.35;4.95;;;;;;;12.16;58.64;93731.25;4220154;28;20048;-61
2023/04/26 07:23:58;;;;;;;6.43;5.15;;;;;;;12.29;57.62;93731.34;4215898;28;20047;-61
2023/04/26 07:26:03;;;;;;;8.38;5.22;;;;;;;12.31;57.23;93731.16;4213156;28;20044;-60
2023/04/26 07:28:05;;;;;;;13.55;7.20;;;;;;;12.32;55.89;93724.06;4213937;28;20052;-58
2023/04/26 07:30:07;;;;;;;6.47;4.55;;;;;;;12.31;56.79;93733.78;4213943;28;20131;-62
2023/04/26 07:32:08;;;;;;;5.88;4.65;;;;;;;12.18;55.77;93731.06;4223457;28;20055;-62
2023/04/26 07:34:10;;;;;;;9.70;6.18;;;;;;;11.92;56.06;93740.38;4221157;28;20054;-61
2023/04/26 07:36:12;;;;;;;5.95;4.30;;;;;;;11.73;56.71;93746.25;4220383;28;20052;-60
2023/04/26 07:38:18;;;;;;;5.80;4.97;;;;;;;11.67;57.05;93738.13;4219800;27;20044;-61
2023/04/26 07:40:21;;;;;;;4.68;3.58;;;;;;;11.76;56.62;93741.44;4214900;28;20078;-61
2023/04/26 07:42:23;;;;;;;8.18;5.70;;;;;;;11.83;56.11;93750.19;4216738;28;20459;-62
2023/04/26 07:44:25;;;;;;;7.47;4.60;;;;;;;11.58;57.25;93752.38;4217434;28;20087;-62
2023/04/26 07:46:26;;;;;;;6.50;4.30;;;;;;;11.56;57.04;93756.19;4216053;28;20567;-60
2023/04/26 07:48:28;;;;;;;5.38;4.40;;;;;;;11.54;56.46;93751.13;4217980;28;20039;-61
2023/04/26 07:50:30;;;;;;;6.15;3.65;;;;;;;11.54;56.06;93758.19;4214908;28;20134;-61
2023/04/26 07:52:31;;;;;;;5.40;4.00;;;;;;;10.95;56.25;93765.25;4215808;28;20490;-60
2023/04/26 07:54:33;;;;;;;9.05;5.70;;;;;;;11.00;57.56;93757.66;4227013;28;20559;-61
2023/04/26 07:56:35;;;;;;;8.90;5.10;;;;;;;11.02;57.77;93760.91;4217584;28;20458;-62
2023/04/26 07:58:38;;;;;;;6.28;4.82;;;;;;;11.26;56.35;93780.72;4216300;28;20048;-62
2023/04/26 08:00:40;;;;;;;6.00;4.68;;;;;;;11.14;56.91;93758.63;4217446;28;20052;-63
2023/04/26 08:02:42;;;;;;;7.18;4.80;;;;;;;11.48;56.02;93757.94;4218494;28;20199;-62
2023/04/26 08:04:56;;;;;;;6.00;4.50;;;;;;;11.57;55.10;93758.66;4217430;28;20086;-62
2023/04/26 08:07:01;;;;;;;6.07;4.38;;;;;;;11.00;57.37;93764.72;4215717;28;20128;-60
2023/04/26 08:09:04;;;;;;;9.20;5.60;;;;;;;11.10;58.01;93769.63;4218894;28;20035;-61
2023/04/26 08:11:09;;;;;;;5.53;4.40;;;;;;;10.97;57.87;93768.50;4216007;28;20101;-61
2023/04/26 08:13:11;;;;;;;8.00;5.32;;;;;;;10.71;58.32;93770.78;4217230;28;20052;-61
2023/04/26 08:15:12;;;;;;;7.38;5.30;;;;;;;10.80;58.35;93769.72;4227092;28;20043;-60
2023/04/26 08:17:14;;;;;;;10.05;5.53;;;;;;;10.74;58.71;93757.34;4227937;28;20040;-62
2023/04/26 08:19:16;;;;;;;7.40;4.97;;;;;;;11.24;58.09;93764.34;4228017;28;20063;-62
2023/04/26 08:21:17;;;;;;;8.52;5.38;;;;;;;11.66;56.92;93772.44;4223599;28;20047;-61
2023/04/26 08:23:20;;;;;;;6.28;4.70;;;;;;;11.79;56.40;93767.31;4223715;28;20044;-62
2023/04/26 08:25:22;;;;;;;12.10;5.85;;;;;;;11.85;55.73;93750.81;4226064;28;20054;-59
2023/04/26 08:27:24;;;;;;;11.05;5.45;;;;;;;11.55;56.89;93765.06;4229271;28;20457;-61
2023/04/26 08:29:26;;;;;;;9.05;4.35;;;;;;;11.79;56.22;93756.00;4229680;28;20093;-61
2023/04/26 08:31:28;;;;;;;5.80;4.57;;;;;;;12.13;55.69;93755.28;4211664;28;20052;-60
2023/04/26 08:33:30;;;;;;;5.82;4.13;;;;;;;12.44;54.46;93759.31;4223821;28;20055;-61
2023/04/26 08:35:32;;;;;;;4.78;3.60;;;;;;;12.58;53.58;93757.56;4205540;28;20047;-63
2023/04/26 08:37:34;;;;;;;6.05;4.25;;;;;;;12.50;54.11;93764.59;4228473;28;20096;-62
2023/04/26 08:39:36;;;;;;;5.85;4.68;;;;;;;12.33;54.82;93757.22;4229525;28;20075;-61
2023/04/26 08:41:44;;;;;;;5.00;3.15;;;;;;;12.35;53.56;93755.22;4215313;28;20101;-63
2023/04/26 08:43:46;;;;;;;5.68;4.15;;;;;;;12.56;53.72;93756.94;4218099;28;20097;-62
2023/04/26 08:45:48;;;;;;;4.95;3.50;;;;;;;12.60;53.54;93753.72;4227384;28;20505;-59
2023/04/26 08:47:52;;;;;;;6.82;3.40;;;;;;;12.45;54.56;93750.41;4227130;28;20090;-61
2023/04/26 08:49:59;;;;;;;5.57;3.55;;;;;;;12.81;54.30;93755.44;4227010;28;20096;-61
2023/04/26 08:52:03;;;;;;;11.07;3.70;;;;;;;12.98;53.31;93760.38;4226808;28;20048;-59
2023/04/26 08:54:05;;;;;;;8.75;3.38;;;;;;;13.16;52.43;93757.19;4225584;28;20055;-61
2023/04/26 08:56:07;;;;;;;12.68;3.53;;;;;;;12.93;52.07;93753.09;4208602;28;20134;-62
2023/04/26 08:58:10;;;;;;;5.90;3.17;;;;;;;12.95;52.22;93761.59;4227073;28;20047;-63
2023/04/26 09:00:14;;;;;;;6.20;3.95;;;;;;;12.94;52.22;93759.16;4227714;28;20063;-62
2023/04/26 09:02:18;;;;;;;9.07;3.88;;;;;;;12.26;54.03;93763.25;4227900;28;20496;-62
2023/04/26 09:04:20;;;;;;;4.50;3.25;;;;;;;11.87;54.98;93764.56;4228261;28;20051;-62
2023/04/26 09:06:22;;;;;;;6.07;3.50;;;;;;;12.21;53.81;93760.38;4227713;28;20495;-59
2023/04/26 09:08:24;;;;;;;4.18;3.00;;;;;;;12.52;53.85;93759.16;4228575;28;20055;-60
2023/04/26 09:10:26;;;;;;;5.22;3.40;;;;;;;12.75;52.89;93758.03;4226402;28;20043;-61
2023/04/26 09:12:27;;;;;;;6.45;3.33;;;;;;;12.93;52.22;93774.13;4224095;28;20109;-63
2023/04/26 09:14:29;;;;;;;4.25;3.28;;;;;;;12.99;52.13;93768.06;4218182;28;20109;-62
2023/04/26 09:16:35;;;;;;;5.00;2.95;;;;;;;12.81;51.89;93781.72;4222968;28;20058;-60
2023/04/26 09:18:47;;;;;;;2.88;2.50;;;;;;;12.74;51.93;93772.22;4208901;28;20047;-60
2023/04/26 09:21:06;;;;;;;4.95;2.92;;;;;;;12.88;51.52;93779.13;4221152;28;20088;-61
2023/04/26 09:23:09;;;;;;;4.25;2.53;;;;;;;12.89;50.84;93767.63;4221069;28;20054;-62
2023/04/26 09:25:12;;;;;;;5.55;2.58;;;;;;;12.91;51.58;93768.25;4217178;28;20047;-61
2023/04/26 09:27:15;;;;;;;7.38;3.63;;;;;;;12.90;52.15;93770.03;4218428;28;20521;-60
2023/04/26 09:29:17;;;;;;;5.77;3.67;;;;;;;13.08;51.76;93777.41;4217648;28;20079;-64
2023/04/26 09:31:40;;;;;;;4.78;3.53;;;;;;;12.93;51.43;93773.28;4211308;28;20044;-61